Mount Eden, Kentucky
Current Conditions -  °F | °C
As of 7:53 PM on Saturday 25 Oct 2014 (Local Time) from KFFT Reporting Station
Clear Clear  
Wind Chill: 62°   Ceiling: Unl
Heat Index: 62°   Visibility: 10mi
Dew Point: 56°   Wind: 5mph
Humidity: 80%   Direction: 230°SW
Pressure: 29.95"   Gusts: NA
Location:  38.06°N, 85.15°W
Report Text: KFFT 252353Z AUTO 23004KT 10SM CLR 17/13 A2995 RMK AO2 SLP142 T01670133 10228 20167 58001
Loading
Personal Weather Stations






























Interactive Weather Map
Tropical Storm Tracking
New forecast layout! Learn more

10-Day Weather Forecast

Advertisements
Track Severe Weather on mobile